createdAt,value
2018-08-09T00:02:26.705Z,93.90
2018-08-09T00:04:54.902Z,93.80
2018-08-09T00:07:23.078Z,94.00
2018-08-09T00:09:51.246Z,94.10
2018-08-09T00:12:19.429Z,94.30
2018-08-09T00:14:47.609Z,94.40
2018-08-09T00:17:15.805Z,94.40
2018-08-09T00:19:43.997Z,94.50
2018-08-09T00:22:12.175Z,94.30
2018-08-09T00:24:40.367Z,94.20
2018-08-09T00:27:08.549Z,94.20
2018-08-09T00:29:36.742Z,94.50
2018-08-09T00:32:04.926Z,94.60
2018-08-09T00:34:33.117Z,94.40
2018-08-09T00:37:01.318Z,94.30
2018-08-09T00:39:29.493Z,94.30
2018-08-09T00:41:57.661Z,94.20
2018-08-09T00:44:25.869Z,94.00
2018-08-09T00:46:54.045Z,94.40
2018-08-09T00:49:22.251Z,94.60
2018-08-09T00:51:50.409Z,94.50
2018-08-09T00:54:18.618Z,94.60
2018-08-09T00:56:46.790Z,94.80
2018-08-09T00:59:14.995Z,94.80
2018-08-09T01:01:43.162Z,95.00
2018-08-09T01:04:11.353Z,94.90
2018-08-09T01:06:39.538Z,95.00
2018-08-09T01:09:08.853Z,94.90
2018-08-09T01:11:38.068Z,94.80
2018-08-09T01:14:06.282Z,94.90
2018-08-09T01:16:34.441Z,94.90
2018-08-09T01:19:02.625Z,95.00
2018-08-09T01:21:31.018Z,94.90
2018-08-09T01:23:59.415Z,94.90
2018-08-09T01:26:27.587Z,95.00
2018-08-09T01:28:55.782Z,95.10
2018-08-09T01:31:34.428Z,95.10
2018-08-09T01:34:04.245Z,95.30
2018-08-09T01:36:32.941Z,95.20
2018-08-09T01:39:01.339Z,95.10
2018-08-09T01:41:29.508Z,94.90
2018-08-09T01:43:59.653Z,94.90
2018-08-09T01:46:28.146Z,94.90
2018-08-09T01:48:56.854Z,94.90
2018-08-09T01:51:25.542Z,95.30
2018-08-09T01:53:54.041Z,95.40
2018-08-09T01:56:22.238Z,95.30
2018-08-09T01:58:50.938Z,95.40
2018-08-09T02:01:19.624Z,95.50
2018-08-09T02:03:47.783Z,95.50
2018-08-09T02:06:16.930Z,95.40
2018-08-09T02:08:45.617Z,95.20
2018-08-09T02:11:13.786Z,95.20
2018-08-09T02:13:42.617Z,95.60
2018-08-09T02:16:10.761Z,95.90
2018-08-09T02:18:39.289Z,95.90
2018-08-09T02:21:08.143Z,96.00
2018-08-09T02:23:36.261Z,96.20
2018-08-09T02:26:04.793Z,96.00
2018-08-09T02:28:33.037Z,96.20
2018-08-09T02:31:01.247Z,96.10
2018-08-09T02:33:29.737Z,96.30
2018-08-09T02:35:57.894Z,96.30
2018-08-09T02:38:26.085Z,96.50
2018-08-09T02:40:54.275Z,96.40
2018-08-09T02:43:22.495Z,96.30
2018-08-09T02:45:50.658Z,96.30
2018-08-09T02:48:18.826Z,96.40
2018-08-09T02:50:47.022Z,96.50
2018-08-09T02:53:15.338Z,96.50
2018-08-09T02:55:43.498Z,96.40
2018-08-09T02:58:11.686Z,96.20
2018-08-09T03:00:39.883Z,96.20
2018-08-09T03:03:08.054Z,96.40
2018-08-09T03:05:36.139Z,96.50
2018-08-09T03:08:04.431Z,96.70
2018-08-09T03:10:33.603Z,96.80
2018-08-09T03:13:01.853Z,96.70
2018-08-09T03:15:30.045Z,96.60
2018-08-09T03:17:58.538Z,96.70
2018-08-09T03:20:26.735Z,96.80
2018-08-09T03:22:54.921Z,96.70
2018-08-09T03:25:23.142Z,96.70
2018-08-09T03:27:51.277Z,96.70
2018-08-09T03:30:19.485Z,96.60
2018-08-09T03:32:47.760Z,96.70
2018-08-09T03:35:16.153Z,96.40
2018-08-09T03:37:44.333Z,96.30
2018-08-09T03:40:12.525Z,96.20
2018-08-09T03:42:40.697Z,96.20
2018-08-09T03:45:08.905Z,96.60
2018-08-09T03:47:37.090Z,96.80
2018-08-09T03:50:05.350Z,96.60
2018-08-09T03:52:33.557Z,96.40
2018-08-09T03:55:01.753Z,96.30
2018-08-09T03:57:29.930Z,96.40
2018-08-09T03:59:58.040Z,96.40
2018-08-09T04:02:26.198Z,96.50
2018-08-09T04:04:54.393Z,96.60
2018-08-09T04:07:22.596Z,96.70
2018-08-09T04:09:50.765Z,96.70
2018-08-09T04:12:18.950Z,96.70
2018-08-09T04:14:47.379Z,96.70
2018-08-09T04:17:19.418Z,96.50
2018-08-09T04:19:48.445Z,96.20
2018-08-09T04:22:16.609Z,95.90
2018-08-09T04:24:45.014Z,95.60
2018-08-09T04:27:13.424Z,95.50
2018-08-09T04:29:41.621Z,95.30
2018-08-09T04:32:09.762Z,95.20
2018-08-09T04:34:37.985Z,95.30
2018-08-09T04:37:06.454Z,94.90
2018-08-09T04:39:34.675Z,94.80
2018-08-09T04:42:02.828Z,94.80
2018-08-09T04:44:31.574Z,94.90
2018-08-09T04:46:59.701Z,94.80
2018-08-09T04:49:27.816Z,94.80
2018-08-09T04:51:56.521Z,94.80
2018-08-09T04:54:24.674Z,94.80
2018-08-09T04:56:53.399Z,94.80
2018-08-09T04:59:21.586Z,94.70
2018-08-09T05:01:49.764Z,94.70
2018-08-09T05:04:18.046Z,94.40
2018-08-09T05:06:46.278Z,94.70
2018-08-09T05:09:14.409Z,94.70
2018-08-09T05:11:42.719Z,94.80
2018-08-09T05:14:10.998Z,94.70
2018-08-09T05:16:39.643Z,94.70
2018-08-09T05:19:07.782Z,94.60
2018-08-09T05:21:36.082Z,94.80
2018-08-09T05:24:04.253Z,94.60
2018-08-09T05:26:32.509Z,94.60
2018-08-09T05:29:00.621Z,94.70
2018-08-09T05:31:28.731Z,94.70
2018-08-09T05:33:56.903Z,94.70
2018-08-09T05:36:25.157Z,94.60
2018-08-09T05:38:53.374Z,94.50
2018-08-09T05:41:21.582Z,94.40
2018-08-09T05:43:49.770Z,94.30
2018-08-09T05:46:17.945Z,94.30
2018-08-09T05:48:46.125Z,94.40
2018-08-09T05:51:14.275Z,94.00
2018-08-09T05:53:42.390Z,93.90
2018-08-09T05:56:10.581Z,94.40
2018-08-09T05:58:38.804Z,94.10
2018-08-09T06:01:07.189Z,94.10
2018-08-09T06:03:35.346Z,94.00
2018-08-09T06:06:03.573Z,94.00
2018-08-09T06:08:31.698Z,93.90
2018-08-09T06:10:59.883Z,93.90
2018-08-09T06:13:28.129Z,93.80
2018-08-09T06:15:56.255Z,93.80
2018-08-09T06:18:24.485Z,93.70
2018-08-09T06:20:52.700Z,93.80
2018-08-09T06:23:20.821Z,94.00
2018-08-09T06:25:50.413Z,94.40
2018-08-09T06:28:18.932Z,93.60
2018-08-09T06:30:47.030Z,93.70
2018-08-09T06:33:15.202Z,93.80
2018-08-09T06:35:43.531Z,93.70
2018-08-09T06:38:11.613Z,93.90
2018-08-09T06:40:39.770Z,93.90
2018-08-09T06:43:07.978Z,94.20
2018-08-09T06:45:36.143Z,93.80
2018-08-09T06:48:04.342Z,93.80
2018-08-09T06:50:32.530Z,93.80
2018-08-09T06:53:00.686Z,93.70
2018-08-09T06:55:28.815Z,92.90
2018-08-09T06:57:56.962Z,93.50
2018-08-09T07:00:25.142Z,93.20
2018-08-09T07:02:53.430Z,92.80
2018-08-09T07:05:21.534Z,93.20
2018-08-09T07:07:49.721Z,92.40
2018-08-09T07:10:17.903Z,92.60
2018-08-09T07:12:46.140Z,93.00
2018-08-09T07:15:14.275Z,93.60
2018-08-09T07:17:42.481Z,92.20
2018-08-09T07:20:10.994Z,91.60
2018-08-09T07:22:40.302Z,92.40
2018-08-09T07:25:08.787Z,92.60
2018-08-09T07:27:37.415Z,92.00
2018-08-09T07:30:07.482Z,91.30
2018-08-09T07:32:36.960Z,91.90
2018-08-09T07:35:05.890Z,91.80
2018-08-09T07:37:34.396Z,91.90
2018-08-09T07:40:03.099Z,92.10
2018-08-09T07:42:31.331Z,92.00
2018-08-09T07:44:59.489Z,90.30
2018-08-09T07:47:27.674Z,90.90
2018-08-09T07:49:55.851Z,90.40
2018-08-09T07:52:24.066Z,90.70
2018-08-09T07:54:52.227Z,90.60
2018-08-09T07:57:20.421Z,90.60
2018-08-09T07:59:48.598Z,90.60
2018-08-09T08:02:16.796Z,90.10
2018-08-09T08:04:44.965Z,90.70
2018-08-09T08:07:13.077Z,90.60
2018-08-09T08:09:41.258Z,90.40
2018-08-09T08:12:10.297Z,90.40
2018-08-09T08:14:38.430Z,90.10
2018-08-09T08:17:08.315Z,90.00
2018-08-09T08:19:36.465Z,90.50
2018-08-09T08:22:04.748Z,90.80
2018-08-09T08:24:33.807Z,90.80
2018-08-09T08:27:01.938Z,90.90
2018-08-09T08:29:30.124Z,90.70
2018-08-09T08:31:58.317Z,90.60
2018-08-09T08:34:26.841Z,90.10
2018-08-09T08:36:54.993Z,91.10
2018-08-09T08:39:23.338Z,91.00
2018-08-09T08:41:51.564Z,91.10
2018-08-09T08:44:19.648Z,90.90
2018-08-09T08:46:47.934Z,90.80
2018-08-09T08:49:16.027Z,91.60
2018-08-09T08:51:44.215Z,91.20
2018-08-09T08:54:12.405Z,91.10
2018-08-09T08:56:40.773Z,90.70
2018-08-09T08:59:08.906Z,91.60
2018-08-09T09:01:37.066Z,91.10
2018-08-09T09:04:05.254Z,90.70
2018-08-09T09:06:33.438Z,90.90
2018-08-09T09:09:01.657Z,90.80
2018-08-09T09:11:29.850Z,90.30
2018-08-09T09:13:58.018Z,89.10
2018-08-09T09:16:26.209Z,89.10
2018-08-09T09:18:54.832Z,89.40
2018-08-09T09:21:23.210Z,89.40
2018-08-09T09:23:51.401Z,90.20
2018-08-09T09:26:19.569Z,87.80
2018-08-09T09:28:48.154Z,85.70
2018-08-09T09:31:17.113Z,85.60
2018-08-09T09:33:45.635Z,82.20
2018-08-09T09:36:13.758Z,84.50
2018-08-09T09:38:41.946Z,85.30
2018-08-09T09:41:10.121Z,85.70
2018-08-09T09:43:38.329Z,86.10
2018-08-09T09:46:07.945Z,86.50
2018-08-09T09:48:36.121Z,86.40
2018-08-09T09:51:04.398Z,81.10
2018-08-09T09:53:32.528Z,82.80
2018-08-09T09:56:00.709Z,84.80
2018-08-09T09:58:29.380Z,81.30
2018-08-09T10:01:02.833Z,75.50
2018-08-09T10:03:31.079Z,75.70
2018-08-09T10:05:59.262Z,74.90
2018-08-09T10:08:27.673Z,73.40
2018-08-09T10:10:55.817Z,73.80
2018-08-09T10:13:24.523Z,72.50
2018-08-09T10:15:52.704Z,71.60
2018-08-09T10:18:21.950Z,72.10
2018-08-09T10:20:50.104Z,73.90
2018-08-09T10:23:18.297Z,73.90
2018-08-09T10:25:46.566Z,75.80
2018-08-09T10:28:14.779Z,72.50
2018-08-09T10:30:42.958Z,69.20
2018-08-09T10:33:11.146Z,66.50
2018-08-09T10:35:39.330Z,64.90
2018-08-09T10:38:08.781Z,66.10
2018-08-09T10:40:36.942Z,64.60
2018-08-09T10:43:05.126Z,65.80
2018-08-09T10:45:33.826Z,65.70
2018-08-09T10:48:02.037Z,66.60
2018-08-09T10:50:30.186Z,63.20
2018-08-09T10:52:58.381Z,60.60
2018-08-09T10:55:26.589Z,59.40
2018-08-09T10:57:54.882Z,58.20
2018-08-09T11:00:23.042Z,57.90
2018-08-09T11:02:51.230Z,58.40
2018-08-09T11:05:19.413Z,55.90
2018-08-09T11:07:47.625Z,56.10
2018-08-09T11:10:15.834Z,53.70
2018-08-09T11:12:44.627Z,54.30
2018-08-09T11:15:13.414Z,55.40
2018-08-09T11:17:41.641Z,53.40
2018-08-09T11:20:10.029Z,52.90
2018-08-09T11:22:38.717Z,52.50
2018-08-09T11:25:07.610Z,53.90
2018-08-09T11:27:35.839Z,51.70
2018-08-09T11:30:05.271Z,50.70
2018-08-09T11:32:33.749Z,51.30
2018-08-09T11:35:01.889Z,51.20
2018-08-09T11:37:30.073Z,50.70
2018-08-09T11:39:58.270Z,50.60
2018-08-09T11:42:26.474Z,50.20
2018-08-09T11:44:54.765Z,50.20
2018-08-09T11:47:22.930Z,45.40
2018-08-09T11:49:51.112Z,45.40
2018-08-09T11:52:19.291Z,46.80
2018-08-09T11:54:47.501Z,44.20
2018-08-09T11:57:15.698Z,44.50
2018-08-09T11:59:43.884Z,44.40
2018-08-09T12:02:12.139Z,43.60
2018-08-09T12:04:40.611Z,43.50
2018-08-09T12:07:10.127Z,41.50
2018-08-09T12:09:38.199Z,42.20
2018-08-09T12:12:06.387Z,42.00
2018-08-09T12:14:35.270Z,41.40
2018-08-09T12:17:03.423Z,41.90
2018-08-09T12:19:31.638Z,42.50
2018-08-09T12:22:02.003Z,43.90
2018-08-09T12:24:30.261Z,45.00
2018-08-09T12:26:58.425Z,44.10
2018-08-09T12:29:26.586Z,43.70
2018-08-09T12:31:55.035Z,43.70
2018-08-09T12:34:23.161Z,44.30
2018-08-09T12:36:51.329Z,46.10
2018-08-09T12:39:19.438Z,45.30
2018-08-09T12:41:47.625Z,46.30
2018-08-09T12:44:15.806Z,46.30
2018-08-09T12:46:43.910Z,46.70
2018-08-09T12:49:12.177Z,46.90
2018-08-09T12:51:40.361Z,47.30
2018-08-09T12:54:08.557Z,47.30
2018-08-09T12:56:36.656Z,48.00
2018-08-09T12:59:04.832Z,48.00
2018-08-09T13:01:33.006Z,48.00
2018-08-09T13:04:01.106Z,48.70
2018-08-09T13:06:29.292Z,48.20
2018-08-09T13:08:57.493Z,50.90
2018-08-09T13:11:25.743Z,55.20
2018-08-09T13:13:53.842Z,58.80
2018-08-09T13:16:22.025Z,63.90
2018-08-09T13:18:51.518Z,68.20
2018-08-09T13:21:19.706Z,72.80
2018-08-09T13:23:47.818Z,75.40
2018-08-09T13:26:16.249Z,78.20
2018-08-09T13:28:44.409Z,81.30
2018-08-09T13:31:12.522Z,87.70
2018-08-09T13:33:40.762Z,92.80
2018-08-09T13:36:08.898Z,95.50
2018-08-09T13:38:37.066Z,96.10
2018-08-09T13:41:05.237Z,98.40
2018-08-09T13:43:33.438Z,99.00
2018-08-09T13:46:01.600Z,99.90
2018-08-09T13:48:29.845Z,99.50
2018-08-09T13:50:57.996Z,99.90
2018-08-09T13:53:26.205Z,99.90
2018-08-09T13:55:54.374Z,99.90
2018-08-09T13:58:22.496Z,99.90
2018-08-09T14:00:50.645Z,99.90
2018-08-09T14:03:18.806Z,99.90
2018-08-09T14:05:47.033Z,99.90
2018-08-09T14:08:15.206Z,99.90
2018-08-09T14:10:43.422Z,99.90
2018-08-09T14:13:11.569Z,99.90
2018-08-09T14:15:39.730Z,99.90
2018-08-09T14:18:07.946Z,99.80
2018-08-09T14:20:36.118Z,99.90
2018-08-09T14:23:04.321Z,99.90
2018-08-09T14:25:32.491Z,99.90
2018-08-09T14:28:00.697Z,99.90
2018-08-09T14:30:29.194Z,99.90
2018-08-09T14:32:57.397Z,99.90
2018-08-09T14:35:26.365Z,99.90
2018-08-09T14:37:54.578Z,99.90
2018-08-09T14:40:22.717Z,98.90
2018-08-09T14:42:50.828Z,99.20
2018-08-09T14:45:19.013Z,99.10
2018-08-09T14:47:47.264Z,98.70
2018-08-09T14:50:15.393Z,97.90
2018-08-09T14:52:43.955Z,98.60
2018-08-09T14:55:12.897Z,97.70
2018-08-09T14:57:41.465Z,97.20
2018-08-09T15:00:14.567Z,97.80
2018-08-09T15:02:43.105Z,97.50
2018-08-09T15:05:11.299Z,96.60
2018-08-09T15:07:39.487Z,95.70
2018-08-09T15:10:07.741Z,94.50
2018-08-09T15:12:35.978Z,94.60
2018-08-09T15:15:06.160Z,94.90
2018-08-09T15:17:34.387Z,94.80
2018-08-09T15:20:02.937Z,95.20
2018-08-09T15:22:31.179Z,94.90
2018-08-09T15:24:59.386Z,94.60
2018-08-09T15:27:27.530Z,94.50
2018-08-09T15:29:55.705Z,95.30
2018-08-09T15:32:23.976Z,95.30
2018-08-09T15:34:52.082Z,94.40
2018-08-09T15:37:20.262Z,94.10
2018-08-09T15:39:48.459Z,94.10
2018-08-09T15:42:16.642Z,94.50
2018-08-09T15:44:44.907Z,93.60
2018-08-09T15:47:13.170Z,93.40
2018-08-09T15:49:41.310Z,92.70
2018-08-09T15:52:09.497Z,92.60
2018-08-09T15:54:37.673Z,92.40
2018-08-09T15:57:05.859Z,92.00
2018-08-09T15:59:34.074Z,91.00
2018-08-09T16:02:02.230Z,91.10
2018-08-09T16:04:30.421Z,90.00
2018-08-09T16:06:58.622Z,88.20
2018-08-09T16:09:26.777Z,88.50
2018-08-09T16:11:54.969Z,87.50
2018-08-09T16:14:23.153Z,86.40
2018-08-09T16:16:51.350Z,87.00
2018-08-09T16:19:19.530Z,86.20
2018-08-09T16:21:47.742Z,86.20
2018-08-09T16:24:15.894Z,87.20
2018-08-09T16:26:44.083Z,87.90
2018-08-09T16:29:12.273Z,88.90
2018-08-09T16:31:40.469Z,90.10
2018-08-09T16:34:08.647Z,90.50
2018-08-09T16:36:36.839Z,90.60
2018-08-09T16:39:08.886Z,90.90
2018-08-09T16:41:37.007Z,91.00
2018-08-09T16:44:05.189Z,91.30
2018-08-09T16:46:33.481Z,91.20
2018-08-09T16:49:01.662Z,91.20
2018-08-09T16:51:29.873Z,91.30
2018-08-09T16:53:58.038Z,91.30
2018-08-09T16:56:26.257Z,91.30
2018-08-09T16:58:54.398Z,91.80
2018-08-09T17:01:22.670Z,91.60
2018-08-09T17:03:50.773Z,91.50
2018-08-09T17:06:18.985Z,91.80
2018-08-09T17:08:47.157Z,91.90
2018-08-09T17:11:15.357Z,92.00
2018-08-09T17:13:43.538Z,91.80
2018-08-09T17:16:11.722Z,92.20
2018-08-09T17:18:39.886Z,92.20
2018-08-09T17:21:08.034Z,92.30
2018-08-09T17:23:36.190Z,92.60
2018-08-09T17:26:04.398Z,92.40
2018-08-09T17:28:32.564Z,92.30
2018-08-09T17:31:00.745Z,92.50
2018-08-09T17:33:28.913Z,92.60
2018-08-09T17:35:57.106Z,92.20
2018-08-09T17:38:25.318Z,92.10
2018-08-09T17:40:53.482Z,92.10
2018-08-09T17:43:21.744Z,92.10
2018-08-09T17:45:49.854Z,92.10
2018-08-09T17:48:18.054Z,92.10
2018-08-09T17:50:46.228Z,92.20
2018-08-09T17:53:14.422Z,92.50
2018-08-09T17:55:42.614Z,92.40
2018-08-09T17:58:10.802Z,92.40
2018-08-09T18:00:38.970Z,91.80
2018-08-09T18:03:07.188Z,92.10
2018-08-09T18:05:35.353Z,92.20
2018-08-09T18:08:03.555Z,92.10
2018-08-09T18:10:34.308Z,92.10
2018-08-09T18:13:02.493Z,92.20
2018-08-09T18:15:31.399Z,92.40
2018-08-09T18:18:00.214Z,92.40
2018-08-09T18:20:30.138Z,92.10
2018-08-09T18:22:58.600Z,92.20
2018-08-09T18:25:26.798Z,91.90
2018-08-09T18:27:55.043Z,92.00
2018-08-09T18:30:23.160Z,92.00
2018-08-09T18:32:51.455Z,91.90
2018-08-09T18:35:20.069Z,92.10
2018-08-09T18:37:48.266Z,92.40
2018-08-09T18:40:22.687Z,92.10
2018-08-09T18:42:50.904Z,92.00
2018-08-09T18:45:19.425Z,92.40
2018-08-09T18:47:47.598Z,92.10
2018-08-09T18:50:20.346Z,92.00
2018-08-09T18:52:48.554Z,91.90
2018-08-09T18:55:17.706Z,92.00
2018-08-09T18:57:45.846Z,92.10
2018-08-09T19:00:16.325Z,92.30
2018-08-09T19:02:45.179Z,92.30
2018-08-09T19:05:13.378Z,92.30
2018-08-09T19:07:41.570Z,92.50
2018-08-09T19:10:11.643Z,92.50
2018-08-09T19:12:39.766Z,92.60
2018-08-09T19:15:09.087Z,92.70
2018-08-09T19:17:37.786Z,92.60
2018-08-09T19:20:08.118Z,92.60
2018-08-09T19:22:36.286Z,92.80
2018-08-09T19:25:05.266Z,92.60
2018-08-09T19:27:33.615Z,92.60
2018-08-09T19:30:01.759Z,92.40
2018-08-09T19:32:29.984Z,92.50
2018-08-09T19:34:58.132Z,92.40
2018-08-09T19:37:26.346Z,92.50
2018-08-09T19:39:55.542Z,92.70
2018-08-09T19:42:23.747Z,92.70
2018-08-09T19:44:52.133Z,92.50
2018-08-09T19:47:20.532Z,92.70
2018-08-09T19:49:48.810Z,92.70
2018-08-09T19:52:16.985Z,92.90
2018-08-09T19:54:45.158Z,92.90
2018-08-09T19:57:13.354Z,93.00
2018-08-09T19:59:41.534Z,93.00
2018-08-09T20:02:09.749Z,93.10
2018-08-09T20:04:37.926Z,93.30
2018-08-09T20:07:06.135Z,93.50
2018-08-09T20:09:34.317Z,93.50
2018-08-09T20:12:02.771Z,93.70
2018-08-09T20:14:30.989Z,93.50
2018-08-09T20:16:59.230Z,93.50
2018-08-09T20:19:27.381Z,93.60
2018-08-09T20:21:55.561Z,93.90
2018-08-09T20:24:23.738Z,93.80
2018-08-09T20:26:51.909Z,94.00
2018-08-09T20:29:20.118Z,94.00
2018-08-09T20:31:48.302Z,94.10
2018-08-09T20:34:16.505Z,94.10
2018-08-09T20:36:44.982Z,94.10
2018-08-09T20:39:14.201Z,93.60
2018-08-09T20:41:42.410Z,93.50
2018-08-09T20:44:10.978Z,93.10
2018-08-09T20:46:39.572Z,92.70
2018-08-09T20:49:08.079Z,92.50
2018-08-09T20:51:36.278Z,92.30
2018-08-09T20:54:04.454Z,92.40
2018-08-09T20:56:32.654Z,91.80
2018-08-09T20:59:00.820Z,91.70
2018-08-09T21:01:29.024Z,91.60
2018-08-09T21:03:57.190Z,92.30
2018-08-09T21:06:25.366Z,91.80
2018-08-09T21:08:53.545Z,92.00
2018-08-09T21:11:21.724Z,92.00
2018-08-09T21:13:49.910Z,91.80
2018-08-09T21:16:18.081Z,91.60
2018-08-09T21:18:46.194Z,92.00
2018-08-09T21:21:14.369Z,91.90
2018-08-09T21:23:42.563Z,92.10
2018-08-09T21:26:10.759Z,92.10
2018-08-09T21:28:38.966Z,92.00
2018-08-09T21:31:07.130Z,91.90
2018-08-09T21:33:35.310Z,91.90
2018-08-09T21:36:03.581Z,92.00
2018-08-09T21:38:31.781Z,91.80
2018-08-09T21:40:59.953Z,92.40
2018-08-09T21:43:28.058Z,92.00
2018-08-09T21:45:56.229Z,92.00
2018-08-09T21:48:24.420Z,92.00
2018-08-09T21:50:52.604Z,92.00
2018-08-09T21:53:20.795Z,91.90
2018-08-09T21:55:48.979Z,92.00
2018-08-09T21:58:17.165Z,92.00
2018-08-09T22:00:51.590Z,91.90
2018-08-09T22:03:23.403Z,92.00
2018-08-09T22:05:57.147Z,92.20
2018-08-09T22:08:30.544Z,92.20
2018-08-09T22:11:04.186Z,92.30
2018-08-09T22:13:37.857Z,92.50
2018-08-09T22:16:11.396Z,92.90
2018-08-09T22:18:45.322Z,93.10
2018-08-09T22:21:18.910Z,93.20
2018-08-09T22:23:47.409Z,92.80
2018-08-09T22:26:15.493Z,92.90
2018-08-09T22:28:44.094Z,93.10
2018-08-09T22:31:12.680Z,93.00
2018-08-09T22:33:40.841Z,93.50
2018-08-09T22:36:09.039Z,93.30
2018-08-09T22:38:37.214Z,93.30
2018-08-09T22:41:05.407Z,93.50
2018-08-09T22:43:33.692Z,94.00
2018-08-09T22:46:01.870Z,94.20
2018-08-09T22:48:30.188Z,93.80
2018-08-09T22:50:58.362Z,93.60
2018-08-09T22:53:26.543Z,93.80
2018-08-09T22:55:54.717Z,94.00
2018-08-09T22:58:22.913Z,93.90
2018-08-09T23:00:51.099Z,93.90
2018-08-09T23:03:19.296Z,94.20
2018-08-09T23:05:47.482Z,94.20
2018-08-09T23:08:16.098Z,94.40
2018-08-09T23:10:44.814Z,94.20
2018-08-09T23:13:13.907Z,94.20
2018-08-09T23:15:42.914Z,94.60
2018-08-09T23:18:11.066Z,94.50
2018-08-09T23:20:39.600Z,94.50
2018-08-09T23:23:07.743Z,94.60
2018-08-09T23:25:35.851Z,94.50
2018-08-09T23:28:04.017Z,94.60
2018-08-09T23:30:33.136Z,94.30
2018-08-09T23:33:01.321Z,94.20
2018-08-09T23:35:29.513Z,94.20
2018-08-09T23:37:57.590Z,94.40
2018-08-09T23:40:25.784Z,94.50
2018-08-09T23:42:53.958Z,94.40
2018-08-09T23:45:22.099Z,94.20
2018-08-09T23:47:50.222Z,93.80
2018-08-09T23:50:18.345Z,93.60
2018-08-09T23:52:46.513Z,93.30
2018-08-09T23:55:15.963Z,93.70
2018-08-09T23:57:44.144Z,93.20
